Time;durP1;ratioP1;P1;durP2;ratioP2;P2;SDS_P1;SDS_P2;PMS_P1;PMS_P2;Temp;Humidity;BMP_temperature;BMP_pressure;BME280_temperature;BME280_humidity;BME280_pressure;Samples;Min_cycle;Max_cycle;Signal;HPM_P1;HPM_P2
2023/01/24 00:01:24;;;;;;;31.88;20.23;;;;;;;;;;5005424;28;20038;-71
2023/01/24 00:03:50;;;;;;;28.95;19.60;;;;;;;;;;5005296;28;20022;-71
2023/01/24 00:06:15;;;;;;;29.77;19.98;;;;;;;;;;5005869;28;20507;-71
2023/01/24 00:08:40;;;;;;;29.85;19.73;;;;;;;;;;5003984;28;25001;-71
2023/01/24 00:11:09;;;;;;;27.98;19.70;;;;;;;;;;5004858;28;20265;-73
2023/01/24 00:13:35;;;;;;;31.52;20.73;;;;;;;;;;5005115;28;20037;-72
2023/01/24 00:16:02;;;;;;;32.58;21.27;;;;;;;;;;5005194;28;20293;-73
2023/01/24 00:18:27;;;;;;;31.75;19.98;;;;;;;;;;5003151;28;20030;-73
2023/01/24 00:20:59;;;;;;;29.88;20.67;;;;;;;;;;5005339;28;20022;-74
2023/01/24 00:23:27;;;;;;;29.42;20.10;;;;;;;;;;5005104;28;20041;-75
2023/01/24 00:25:52;;;;;;;32.75;20.45;;;;;;;;;;5005479;28;20026;-74
2023/01/24 00:28:17;;;;;;;29.42;19.92;;;;;;;;;;5004607;28;20238;-71
2023/01/24 00:30:42;;;;;;;30.52;20.23;;;;;;;;;;5004976;28;20034;-71
2023/01/24 00:33:08;;;;;;;31.25;20.65;;;;;;;;;;5002513;28;20054;-71
2023/01/24 00:35:33;;;;;;;28.88;19.63;;;;;;;;;;5005135;28;20026;-71
2023/01/24 00:37:58;;;;;;;33.17;21.35;;;;;;;;;;5001578;28;20113;-70
2023/01/24 00:40:24;;;;;;;29.25;19.55;;;;;;;;;;4983412;28;20562;-71
2023/01/24 00:42:49;;;;;;;30.83;19.73;;;;;;;;;;4983115;28;20046;-71
2023/01/24 00:45:14;;;;;;;28.38;19.65;;;;;;;;;;4984358;28;20084;-71
2023/01/24 00:47:40;;;;;;;29.13;19.63;;;;;;;;;;5002101;28;20034;-72
2023/01/24 00:50:05;;;;;;;31.25;20.17;;;;;;;;;;5003748;28;20061;-71
2023/01/24 00:52:31;;;;;;;30.30;19.38;;;;;;;;;;5002994;28;20045;-71
2023/01/24 00:54:56;;;;;;;31.08;20.15;;;;;;;;;;5004633;28;20026;-71
2023/01/24 00:57:22;;;;;;;27.40;19.17;;;;;;;;;;5003343;28;20034;-71
2023/01/24 00:59:47;;;;;;;29.13;20.00;;;;;;;;;;5003617;28;20052;-71
2023/01/24 01:02:12;;;;;;;32.17;20.55;;;;;;;;;;5002774;28;20060;-70
2023/01/24 01:04:38;;;;;;;30.65;19.75;;;;;;;;;;5003401;28;20026;-71
2023/01/24 01:07:05;;;;;;;30.92;20.17;;;;;;;;;;5003935;28;20030;-71
2023/01/24 01:09:30;;;;;;;30.17;20.33;;;;;;;;;;5003373;28;20026;-72
2023/01/24 01:11:56;;;;;;;30.95;19.83;;;;;;;;;;5002740;28;20153;-70
2023/01/24 01:14:21;;;;;;;29.67;20.15;;;;;;;;;;5001450;28;20679;-71
2023/01/24 01:16:46;;;;;;;32.22;20.88;;;;;;;;;;5004217;28;20072;-72
2023/01/24 01:19:12;;;;;;;30.70;20.48;;;;;;;;;;5002687;28;20080;-71
2023/01/24 01:21:37;;;;;;;30.02;19.85;;;;;;;;;;5003613;28;20073;-70
2023/01/24 01:24:02;;;;;;;34.80;21.63;;;;;;;;;;5004381;28;20062;-70
2023/01/24 01:26:27;;;;;;;31.45;20.40;;;;;;;;;;5003215;28;20072;-71
2023/01/24 01:28:53;;;;;;;31.55;20.00;;;;;;;;;;5003639;28;20545;-70
2023/01/24 01:31:18;;;;;;;29.05;19.70;;;;;;;;;;5003380;28;20034;-71
2023/01/24 01:33:43;;;;;;;30.02;20.08;;;;;;;;;;5003720;28;20026;-71
2023/01/24 01:36:09;;;;;;;28.80;19.50;;;;;;;;;;5003167;28;20044;-72
2023/01/24 01:38:34;;;;;;;29.35;19.42;;;;;;;;;;4995004;28;20018;-72
2023/01/24 01:40:59;;;;;;;29.33;19.55;;;;;;;;;;4983668;28;20057;-71
2023/01/24 01:43:26;;;;;;;29.77;20.10;;;;;;;;;;4982633;28;20294;-71
2023/01/24 01:46:15;;;;;;;27.85;18.83;;;;;;;;;;4968261;28;20042;-71
2023/01/24 01:48:45;;;;;;;32.67;20.15;;;;;;;;;;5002960;28;20045;-70
2023/01/24 01:51:27;;;;;;;29.17;18.45;;;;;;;;;;5000863;28;20168;-70
2023/01/24 01:54:13;;;;;;;26.58;18.20;;;;;;;;;;5003400;28;20030;-71
2023/01/24 01:56:42;;;;;;;27.33;18.00;;;;;;;;;;5002727;28;20046;-71
2023/01/24 01:59:11;;;;;;;26.85;18.48;;;;;;;;;;5002571;28;20037;-70
2023/01/24 02:01:36;;;;;;;25.08;17.15;;;;;;;;;;5002935;28;20046;-71
2023/01/24 02:04:06;;;;;;;27.45;18.75;;;;;;;;;;4985278;28;20026;-71
2023/01/24 02:06:48;;;;;;;29.00;19.42;;;;;;;;;;5001110;28;20394;-72
2023/01/24 02:09:16;;;;;;;29.25;19.17;;;;;;;;;;5003233;28;20394;-71
2023/01/24 02:11:43;;;;;;;28.52;17.95;;;;;;;;;;5002604;28;20482;-72
2023/01/24 02:16:56;;;;;;;27.23;18.58;;;;;;;;;;5001280;28;20033;-70
2023/01/24 02:19:27;;;;;;;28.67;18.38;;;;;;;;;;5003237;28;20046;-70
2023/01/24 02:21:55;;;;;;;28.63;19.10;;;;;;;;;;5002928;28;20034;-72
2023/01/24 02:24:36;;;;;;;24.90;17.70;;;;;;;;;;5000825;28;20122;-71
2023/01/24 02:27:01;;;;;;;26.90;17.88;;;;;;;;;;5001646;28;20255;-71
2023/01/24 02:29:26;;;;;;;25.75;17.60;;;;;;;;;;5001318;28;20041;-71
2023/01/24 02:31:55;;;;;;;26.98;17.30;;;;;;;;;;5002574;28;20033;-70
2023/01/24 02:34:21;;;;;;;27.92;18.35;;;;;;;;;;5002557;28;20124;-71
2023/01/24 02:36:49;;;;;;;27.20;17.83;;;;;;;;;;5001253;28;20125;-70
2023/01/24 02:39:18;;;;;;;28.92;19.15;;;;;;;;;;4984972;28;20615;-72
2023/01/24 02:41:43;;;;;;;26.65;18.60;;;;;;;;;;4983232;28;20054;-73
2023/01/24 02:44:10;;;;;;;28.35;18.40;;;;;;;;;;4983547;28;20194;-75
2023/01/24 02:46:36;;;;;;;25.05;16.80;;;;;;;;;;4991176;28;20057;-73
2023/01/24 02:49:02;;;;;;;27.55;18.58;;;;;;;;;;5002399;28;20060;-73
2023/01/24 02:54:10;;;;;;;26.85;18.23;;;;;;;;;;5002322;28;20038;-73
2023/01/24 02:59:20;;;;;;;27.80;18.48;;;;;;;;;;5004314;28;20083;-74
2023/01/24 03:01:45;;;;;;;29.52;18.67;;;;;;;;;;5004953;28;20030;-74
2023/01/24 03:04:11;;;;;;;29.88;18.95;;;;;;;;;;5006297;28;20447;-74
2023/01/24 03:06:36;;;;;;;26.90;19.30;;;;;;;;;;5004576;28;20041;-74
2023/01/24 03:09:18;;;;;;;26.25;18.60;;;;;;;;;;5004561;28;20033;-71
2023/01/24 03:11:44;;;;;;;26.40;17.88;;;;;;;;;;5006112;28;20522;-72
2023/01/24 03:36:06;;;;;;;26.92;18.38;;;;;;;;;;4985927;28;20550;-71
2023/01/24 03:41:16;;;;;;;29.85;18.90;;;;;;;;;;4985721;28;20034;-71
2023/01/24 03:43:41;;;;;;;29.73;16.88;;;;;;;;;;4984448;28;20022;-70
2023/01/24 03:46:06;;;;;;;24.98;16.48;;;;;;;;;;4990261;28;20022;-70
2023/01/24 03:48:36;;;;;;;23.83;16.23;;;;;;;;;;5005560;28;20056;-70
2023/01/24 03:53:45;;;;;;;23.35;16.38;;;;;;;;;;5004650;28;20029;-72
2023/01/24 03:56:11;;;;;;;26.42;17.30;;;;;;;;;;5004512;28;20202;-71
2023/01/24 03:58:36;;;;;;;27.88;17.58;;;;;;;;;;5003710;28;20113;-71
2023/01/24 04:01:04;;;;;;;23.65;16.27;;;;;;;;;;5005897;28;20033;-71
2023/01/24 04:03:30;;;;;;;25.83;17.27;;;;;;;;;;5005408;28;20026;-72
2023/01/24 04:05:56;;;;;;;24.00;16.75;;;;;;;;;;5004604;28;20113;-72
2023/01/24 04:08:21;;;;;;;25.48;17.10;;;;;;;;;;5003315;28;20106;-72
2023/01/24 04:10:46;;;;;;;24.55;16.52;;;;;;;;;;5005227;28;20034;-72
2023/01/24 04:13:11;;;;;;;25.98;16.88;;;;;;;;;;5003075;28;20136;-71
2023/01/24 04:15:37;;;;;;;26.88;17.85;;;;;;;;;;5005148;28;20022;-72
2023/01/24 04:18:03;;;;;;;29.30;17.63;;;;;;;;;;5004700;28;20101;-72
2023/01/24 04:20:30;;;;;;;28.38;18.00;;;;;;;;;;5003283;28;20483;-71
2023/01/24 04:22:55;;;;;;;26.98;17.45;;;;;;;;;;4986708;28;20045;-71
2023/01/24 04:25:21;;;;;;;25.15;16.67;;;;;;;;;;5005301;28;20442;-71
2023/01/24 04:27:47;;;;;;;26.98;17.90;;;;;;;;;;5005013;28;20056;-74
2023/01/24 04:30:13;;;;;;;28.40;19.05;;;;;;;;;;5005354;28;20041;-73
2023/01/24 04:32:38;;;;;;;25.27;16.85;;;;;;;;;;5004811;28;20030;-73
2023/01/24 04:35:04;;;;;;;28.85;18.27;;;;;;;;;;4981470;28;20026;-73
2023/01/24 04:37:30;;;;;;;28.65;18.25;;;;;;;;;;4993771;28;20046;-73
2023/01/24 04:39:55;;;;;;;26.70;17.60;;;;;;;;;;4985390;28;20030;-74
2023/01/24 04:42:21;;;;;;;26.02;16.65;;;;;;;;;;4984635;28;20053;-73
2023/01/24 04:44:47;;;;;;;28.25;18.90;;;;;;;;;;4984040;28;20503;-74
2023/01/24 04:47:13;;;;;;;25.55;17.98;;;;;;;;;;4983113;28;20057;-73
2023/01/24 04:49:38;;;;;;;28.20;18.27;;;;;;;;;;4985084;28;20030;-75
2023/01/24 04:52:04;;;;;;;27.92;18.60;;;;;;;;;;4985008;28;20062;-75
2023/01/24 04:54:29;;;;;;;30.20;19.30;;;;;;;;;;4983763;28;20456;-73
2023/01/24 04:56:54;;;;;;;28.88;18.20;;;;;;;;;;4967299;28;20058;-72
2023/01/24 04:59:20;;;;;;;27.25;17.90;;;;;;;;;;4984340;28;20022;-72
2023/01/24 05:01:45;;;;;;;27.58;18.27;;;;;;;;;;4984931;28;20027;-72
2023/01/24 05:04:10;;;;;;;27.45;18.90;;;;;;;;;;4966410;28;20097;-71
2023/01/24 05:06:36;;;;;;;28.17;18.30;;;;;;;;;;4984753;28;20015;-71
2023/01/24 05:09:03;;;;;;;27.20;17.30;;;;;;;;;;4984144;28;20530;-71
2023/01/24 05:11:28;;;;;;;25.58;17.10;;;;;;;;;;4984273;28;20057;-72
2023/01/24 05:13:54;;;;;;;27.75;18.60;;;;;;;;;;4966142;28;20022;-72
2023/01/24 05:16:19;;;;;;;27.35;18.48;;;;;;;;;;4983101;28;20442;-71
2023/01/24 05:18:44;;;;;;;27.08;17.20;;;;;;;;;;4966197;28;20499;-71
2023/01/24 05:21:11;;;;;;;28.20;18.48;;;;;;;;;;4982935;28;20695;-71
2023/01/24 05:23:36;;;;;;;27.75;18.23;;;;;;;;;;4984189;28;20519;-71
2023/01/24 05:26:01;;;;;;;26.15;17.52;;;;;;;;;;4984502;28;20057;-71
2023/01/24 05:28:27;;;;;;;27.50;18.15;;;;;;;;;;4984181;28;20514;-71
2023/01/24 05:30:52;;;;;;;25.20;17.67;;;;;;;;;;4965621;28;20035;-75
2023/01/24 05:33:17;;;;;;;26.90;17.77;;;;;;;;;;4982723;28;20023;-75
2023/01/24 05:35:44;;;;;;;27.38;17.83;;;;;;;;;;4983594;28;20455;-73
2023/01/24 05:38:09;;;;;;;26.38;17.58;;;;;;;;;;4984356;28;20447;-74
2023/01/24 05:40:34;;;;;;;27.17;17.30;;;;;;;;;;4984116;28;20026;-74
2023/01/24 05:43:01;;;;;;;26.77;17.92;;;;;;;;;;4982598;28;20066;-74
2023/01/24 05:45:26;;;;;;;27.92;18.42;;;;;;;;;;4999189;28;20065;-71
2023/01/24 05:47:52;;;;;;;28.38;18.73;;;;;;;;;;5001046;28;20053;-71
2023/01/24 05:50:17;;;;;;;29.23;18.35;;;;;;;;;;5002698;28;20033;-75
2023/01/24 05:52:42;;;;;;;29.98;18.88;;;;;;;;;;5002029;28;20113;-74
2023/01/24 05:55:08;;;;;;;27.17;18.83;;;;;;;;;;5001684;28;20087;-73
2023/01/24 05:57:36;;;;;;;26.77;18.83;;;;;;;;;;5003459;28;20041;-73
2023/01/24 06:00:02;;;;;;;26.27;18.73;;;;;;;;;;5001616;28;20022;-74
2023/01/24 06:02:27;;;;;;;27.90;18.65;;;;;;;;;;5001802;28;20033;-70
2023/01/24 06:04:53;;;;;;;28.65;18.58;;;;;;;;;;5002616;28;20446;-71
2023/01/24 06:07:20;;;;;;;29.38;18.23;;;;;;;;;;5003160;28;20030;-71
2023/01/24 06:09:45;;;;;;;28.27;19.50;;;;;;;;;;5001385;28;20096;-71
2023/01/24 06:12:11;;;;;;;27.25;19.00;;;;;;;;;;5003225;28;20026;-71
2023/01/24 06:14:36;;;;;;;27.58;19.45;;;;;;;;;;5002739;28;20447;-71
2023/01/24 06:17:01;;;;;;;27.30;19.23;;;;;;;;;;5001808;28;20277;-71
2023/01/24 06:19:27;;;;;;;28.45;18.70;;;;;;;;;;5000884;28;20030;-71
2023/01/24 06:22:15;;;;;;;28.45;19.38;;;;;;;;;;5002568;28;20393;-74
2023/01/24 06:24:40;;;;;;;30.77;19.50;;;;;;;;;;5002291;28;20026;-74
2023/01/24 06:27:08;;;;;;;29.02;19.13;;;;;;;;;;4985097;28;20029;-73
2023/01/24 06:29:33;;;;;;;27.08;18.50;;;;;;;;;;5000785;28;20438;-75
2023/01/24 06:32:06;;;;;;;27.77;18.90;;;;;;;;;;5001332;28;20041;-73
2023/01/24 06:34:34;;;;;;;27.38;18.85;;;;;;;;;;5002647;28;20096;-75
2023/01/24 06:37:00;;;;;;;30.38;19.88;;;;;;;;;;4988556;28;20050;-73
2023/01/24 06:39:25;;;;;;;29.45;19.70;;;;;;;;;;4983616;28;20043;-74
2023/01/24 06:41:51;;;;;;;30.02;20.13;;;;;;;;;;4983362;28;20042;-72
2023/01/24 06:44:16;;;;;;;34.15;21.38;;;;;;;;;;4983466;28;20031;-73
2023/01/24 06:46:42;;;;;;;32.60;22.30;;;;;;;;;;4992860;28;20046;-75
2023/01/24 06:49:09;;;;;;;31.52;21.77;;;;;;;;;;5002692;28;20038;-73
2023/01/24 06:51:34;;;;;;;35.70;22.55;;;;;;;;;;5002811;28;20079;-74
2023/01/24 06:54:00;;;;;;;30.13;20.27;;;;;;;;;;5002834;28;20057;-74
2023/01/24 06:56:25;;;;;;;33.47;21.27;;;;;;;;;;5002765;28;20034;-71
2023/01/24 06:58:51;;;;;;;30.70;20.48;;;;;;;;;;5002248;28;20034;-70
2023/01/24 07:01:16;;;;;;;31.38;20.90;;;;;;;;;;5003040;28;20029;-71
2023/01/24 07:03:44;;;;;;;29.27;20.20;;;;;;;;;;5000894;28;20171;-71
2023/01/24 07:06:12;;;;;;;31.17;20.33;;;;;;;;;;5002484;28;20034;-72
2023/01/24 07:08:39;;;;;;;31.13;19.98;;;;;;;;;;5001256;28;20041;-71
2023/01/24 07:11:04;;;;;;;29.75;20.25;;;;;;;;;;5000320;28;20034;-71
2023/01/24 07:13:32;;;;;;;32.10;20.63;;;;;;;;;;5002958;28;20168;-71
2023/01/24 07:16:01;;;;;;;31.40;20.90;;;;;;;;;;5001990;28;20387;-71
2023/01/24 07:18:27;;;;;;;32.55;22.50;;;;;;;;;;5001972;28;20168;-72
2023/01/24 07:20:52;;;;;;;32.38;21.60;;;;;;;;;;5000972;28;20543;-74
2023/01/24 07:23:24;;;;;;;30.38;20.38;;;;;;;;;;5001957;28;20033;-73
2023/01/24 07:25:52;;;;;;;31.80;20.48;;;;;;;;;;5002320;28;20037;-74
2023/01/24 07:28:18;;;;;;;32.05;21.40;;;;;;;;;;5002529;28;20164;-75
2023/01/24 07:30:45;;;;;;;31.52;21.15;;;;;;;;;;5001826;28;20117;-75
2023/01/24 07:33:10;;;;;;;34.83;22.63;;;;;;;;;;5002810;28;20025;-74
2023/01/24 07:35:36;;;;;;;33.28;22.20;;;;;;;;;;4996886;28;20056;-74
2023/01/24 07:38:01;;;;;;;34.10;21.75;;;;;;;;;;4982542;28;20047;-74
2023/01/24 07:40:26;;;;;;;30.70;20.00;;;;;;;;;;4981512;28;20031;-74
2023/01/24 07:42:51;;;;;;;33.35;22.10;;;;;;;;;;4984742;28;20403;-75
2023/01/24 07:45:17;;;;;;;32.80;21.88;;;;;;;;;;4985639;28;20033;-73
2023/01/24 07:47:42;;;;;;;31.77;21.73;;;;;;;;;;4986065;28;20061;-74
2023/01/24 07:50:08;;;;;;;33.25;22.33;;;;;;;;;;5005558;28;20497;-73
2023/01/24 07:52:33;;;;;;;34.08;21.95;;;;;;;;;;5005972;28;20029;-73
2023/01/24 07:54:58;;;;;;;32.92;21.52;;;;;;;;;;5005432;28;20422;-74
2023/01/24 07:57:24;;;;;;;34.75;22.40;;;;;;;;;;5005325;28;20030;-73
2023/01/24 07:59:49;;;;;;;36.90;23.00;;;;;;;;;;5006068;28;20034;-75
2023/01/24 08:02:14;;;;;;;33.13;22.00;;;;;;;;;;5003768;28;20029;-72
2023/01/24 08:04:39;;;;;;;37.65;22.63;;;;;;;;;;5005560;28;20034;-71
2023/01/24 08:07:16;;;;;;;33.45;21.98;;;;;;;;;;5003605;28;20029;-72
2023/01/24 08:09:42;;;;;;;33.28;21.38;;;;;;;;;;5003845;28;20025;-71
2023/01/24 08:12:07;;;;;;;31.67;20.10;;;;;;;;;;5005070;28;20034;-71
2023/01/24 08:14:32;;;;;;;30.13;20.02;;;;;;;;;;5005134;28;20026;-71
2023/01/24 08:16:58;;;;;;;32.97;21.00;;;;;;;;;;5005847;28;20475;-71
2023/01/24 08:19:23;;;;;;;33.67;20.83;;;;;;;;;;5005566;28;20056;-71
2023/01/24 08:21:50;;;;;;;33.25;21.17;;;;;;;;;;5005324;28;20030;-76
2023/01/24 08:24:16;;;;;;;30.13;19.85;;;;;;;;;;5003280;28;20026;-74
2023/01/24 08:26:41;;;;;;;32.47;20.33;;;;;;;;;;5003718;28;20105;-73
2023/01/24 08:29:07;;;;;;;30.35;19.83;;;;;;;;;;5004592;28;20026;-73
2023/01/24 08:31:32;;;;;;;31.10;20.35;;;;;;;;;;5005238;28;20394;-72
2023/01/24 08:33:57;;;;;;;33.50;21.48;;;;;;;;;;5002750;28;20034;-73
2023/01/24 08:36:23;;;;;;;42.67;25.40;;;;;;;;;;4989816;28;20035;-73
2023/01/24 08:38:49;;;;;;;34.30;21.00;;;;;;;;;;4985299;28;20054;-71
2023/01/24 08:41:14;;;;;;;33.75;20.98;;;;;;;;;;4985604;28;20030;-70
2023/01/24 08:43:39;;;;;;;33.17;21.42;;;;;;;;;;4985474;28;20042;-71
2023/01/24 08:46:05;;;;;;;34.70;22.35;;;;;;;;;;4989095;28;20029;-71
2023/01/24 08:48:33;;;;;;;35.40;21.15;;;;;;;;;;5003143;28;20120;-70
2023/01/24 08:51:03;;;;;;;32.83;21.25;;;;;;;;;;5004278;28;20513;-70
2023/01/24 08:53:29;;;;;;;35.78;21.77;;;;;;;;;;5003817;28;20041;-70
2023/01/24 08:55:54;;;;;;;35.88;21.50;;;;;;;;;;5002944;28;20123;-70
2023/01/24 08:58:20;;;;;;;34.20;22.05;;;;;;;;;;5002004;28;20030;-70
2023/01/24 09:00:46;;;;;;;35.60;23.05;;;;;;;;;;5003048;28;20040;-71
2023/01/24 09:03:11;;;;;;;38.20;23.58;;;;;;;;;;5004552;28;20395;-71
2023/01/24 09:05:42;;;;;;;33.95;22.05;;;;;;;;;;5004767;28;20511;-71
2023/01/24 09:08:07;;;;;;;37.33;22.25;;;;;;;;;;5002935;28;20106;-74
2023/01/24 09:10:32;;;;;;;35.67;21.13;;;;;;;;;;4986711;28;20066;-71
2023/01/24 09:12:58;;;;;;;31.75;21.05;;;;;;;;;;5003697;28;20040;-71
2023/01/24 09:15:23;;;;;;;34.05;20.98;;;;;;;;;;5002509;28;20394;-74
2023/01/24 09:17:50;;;;;;;35.17;21.55;;;;;;;;;;5003807;28;20037;-73
2023/01/24 09:20:16;;;;;;;35.90;20.60;;;;;;;;;;5004069;28;20434;-74
2023/01/24 09:22:41;;;;;;;34.75;22.10;;;;;;;;;;5002202;28;20113;-73
2023/01/24 09:25:07;;;;;;;36.97;22.00;;;;;;;;;;5004059;28;20060;-74
2023/01/24 09:27:33;;;;;;;35.45;21.65;;;;;;;;;;5001986;28;20100;-73
2023/01/24 09:29:58;;;;;;;32.92;20.52;;;;;;;;;;5004003;28;20030;-73
2023/01/24 09:32:24;;;;;;;31.15;20.25;;;;;;;;;;5003773;28;20029;-73
2023/01/24 09:34:49;;;;;;;33.67;20.45;;;;;;;;;;5001228;28;20038;-73
2023/01/24 09:37:21;;;;;;;33.08;20.48;;;;;;;;;;4982177;28;20052;-74
2023/01/24 09:39:47;;;;;;;32.95;19.67;;;;;;;;;;4984035;28;20570;-73
2023/01/24 09:42:18;;;;;;;31.27;19.67;;;;;;;;;;4982123;28;20041;-74
2023/01/24 09:44:45;;;;;;;33.85;20.15;;;;;;;;;;4984272;28;20495;-73
2023/01/24 09:47:19;;;;;;;29.95;19.70;;;;;;;;;;4996737;28;20015;-72
2023/01/24 09:49:50;;;;;;;30.52;19.50;;;;;;;;;;5003258;28;20049;-74
2023/01/24 09:52:23;;;;;;;31.75;19.50;;;;;;;;;;5001557;28;20037;-73
2023/01/24 09:54:56;;;;;;;29.83;18.90;;;;;;;;;;5003565;28;20026;-73
2023/01/24 09:57:26;;;;;;;27.20;18.75;;;;;;;;;;5003252;28;20038;-74
2023/01/24 10:00:00;;;;;;;29.95;19.02;;;;;;;;;;5001764;28;20568;-75
2023/01/24 10:02:27;;;;;;;29.98;19.23;;;;;;;;;;5003473;28;20122;-73
2023/01/24 10:04:52;;;;;;;29.55;19.13;;;;;;;;;;5000357;28;20034;-72
2023/01/24 10:07:30;;;;;;;29.27;20.17;;;;;;;;;;5003544;28;20022;-74
2023/01/24 10:10:05;;;;;;;33.05;21.10;;;;;;;;;;5002584;28;20053;-73
2023/01/24 10:12:43;;;;;;;28.50;18.75;;;;;;;;;;5001655;28;20109;-71
2023/01/24 10:15:29;;;;;;;27.30;18.55;;;;;;;;;;5001417;28;20087;-71
2023/01/24 10:18:13;;;;;;;27.85;18.60;;;;;;;;;;5001552;28;20103;-72
2023/01/24 10:20:47;;;;;;;25.98;17.20;;;;;;;;;;5002667;28;20034;-70
2023/01/24 10:23:15;;;;;;;27.42;18.33;;;;;;;;;;5001263;28;20234;-71
2023/01/24 10:25:58;;;;;;;30.17;18.83;;;;;;;;;;4984924;28;20026;-71
2023/01/24 10:28:26;;;;;;;28.42;19.10;;;;;;;;;;5001271;28;20112;-71
2023/01/24 10:30:52;;;;;;;26.65;18.40;;;;;;;;;;5002888;28;20050;-75
2023/01/24 10:33:18;;;;;;;30.48;19.92;;;;;;;;;;5003287;28;20510;-74
2023/01/24 10:35:53;;;;;;;28.65;19.42;;;;;;;;;;4990075;28;20038;-75
2023/01/24 10:38:19;;;;;;;27.77;18.90;;;;;;;;;;4983219;28;20034;-73
2023/01/24 10:40:48;;;;;;;26.08;18.60;;;;;;;;;;4981817;28;20038;-73
2023/01/24 10:43:14;;;;;;;26.80;19.23;;;;;;;;;;4982907;28;20042;-74
2023/01/24 10:46:02;;;;;;;27.17;18.70;;;;;;;;;;4982497;28;20112;-74
2023/01/24 10:48:37;;;;;;;26.98;18.75;;;;;;;;;;4985121;28;20038;-75
2023/01/24 10:51:29;;;;;;;28.33;19.10;;;;;;;;;;5003092;28;20034;-74
2023/01/24 10:53:59;;;;;;;27.85;17.55;;;;;;;;;;5000246;28;20037;-74
2023/01/24 10:56:25;;;;;;;27.25;18.58;;;;;;;;;;5002896;28;20030;-74
2023/01/24 10:59:12;;;;;;;26.25;18.70;;;;;;;;;;5003205;28;20026;-74
2023/01/24 11:01:39;;;;;;;26.17;17.73;;;;;;;;;;5002821;28;20574;-74
2023/01/24 11:04:25;;;;;;;24.95;17.23;;;;;;;;;;5002877;28;20495;-74
2023/01/24 11:06:50;;;;;;;24.73;17.65;;;;;;;;;;5003191;28;20394;-74
2023/01/24 11:09:17;;;;;;;25.02;17.88;;;;;;;;;;5002474;28;20040;-74
2023/01/24 11:12:00;;;;;;;27.17;18.70;;;;;;;;;;5002759;28;20568;-74
2023/01/24 11:14:30;;;;;;;25.90;18.35;;;;;;;;;;5001323;28;20026;-75
2023/01/24 11:16:59;;;;;;;29.35;20.02;;;;;;;;;;5006127;28;20030;-75
2023/01/24 11:19:32;;;;;;;30.88;19.70;;;;;;;;;;5006013;28;20026;-71
2023/01/24 11:21:58;;;;;;;27.67;18.70;;;;;;;;;;5005994;28;20030;-72
2023/01/24 11:24:24;;;;;;;26.75;17.80;;;;;;;;;;5004411;28;20390;-73
2023/01/24 11:27:10;;;;;;;25.60;18.00;;;;;;;;;;5004612;28;20537;-72
2023/01/24 11:29:36;;;;;;;27.30;17.40;;;;;;;;;;5005814;28;20030;-72
2023/01/24 11:32:24;;;;;;;25.40;17.75;;;;;;;;;;5006010;28;20052;-71
2023/01/24 11:34:59;;;;;;;27.08;17.98;;;;;;;;;;4998599;28;20053;-71
2023/01/24 11:37:39;;;;;;;23.30;16.23;;;;;;;;;;4986281;28;20061;-75
2023/01/24 11:40:07;;;;;;;26.40;16.92;;;;;;;;;;4984860;28;20376;-75
2023/01/24 11:42:43;;;;;;;22.95;15.88;;;;;;;;;;4986573;28;20039;-74
2023/01/24 11:45:09;;;;;;;22.67;16.52;;;;;;;;;;4986574;28;20037;-75
2023/01/24 11:47:38;;;;;;;23.63;17.00;;;;;;;;;;5002761;28;20034;-75
2023/01/24 11:50:30;;;;;;;24.13;17.23;;;;;;;;;;5005588;28;20095;-75
2023/01/24 11:53:05;;;;;;;25.80;17.65;;;;;;;;;;5002979;28;20034;-75
2023/01/24 11:55:30;;;;;;;23.52;16.95;;;;;;;;;;5005695;28;20029;-73
2023/01/24 11:57:55;;;;;;;25.73;17.55;;;;;;;;;;5004307;28;20475;-75
2023/01/24 12:00:43;;;;;;;24.55;16.98;;;;;;;;;;5003935;28;20018;-75
2023/01/24 12:03:18;;;;;;;24.30;17.52;;;;;;;;;;5005308;28;20265;-75
2023/01/24 12:05:51;;;;;;;24.95;17.27;;;;;;;;;;5005823;28;20391;-76
2023/01/24 12:08:19;;;;;;;27.77;19.02;;;;;;;;;;5005974;28;20099;-74
2023/01/24 12:10:44;;;;;;;25.52;17.67;;;;;;;;;;5003667;28;20080;-73
2023/01/24 12:13:28;;;;;;;24.52;17.75;;;;;;;;;;5005913;28;20049;-74
2023/01/24 12:16:04;;;;;;;27.27;17.35;;;;;;;;;;5005390;28;20033;-75
2023/01/24 12:18:40;;;;;;;25.00;17.85;;;;;;;;;;5005628;28;20088;-74
2023/01/24 12:21:06;;;;;;;25.58;17.65;;;;;;;;;;5004795;28;20112;-74
2023/01/24 12:23:35;;;;;;;25.65;17.50;;;;;;;;;;5003868;28;20056;-75
2023/01/24 12:26:13;;;;;;;28.13;17.80;;;;;;;;;;5003833;28;20288;-74
2023/01/24 12:28:43;;;;;;;23.88;17.17;;;;;;;;;;5005252;28;20053;-75
2023/01/24 12:31:11;;;;;;;24.90;16.95;;;;;;;;;;5005326;28;20136;-74
2023/01/24 12:33:40;;;;;;;24.50;17.60;;;;;;;;;;5005936;28;20124;-74
2023/01/24 12:36:05;;;;;;;25.42;17.50;;;;;;;;;;4966913;28;20118;-74
2023/01/24 12:38:46;;;;;;;26.85;19.05;;;;;;;;;;4966330;28;20106;-75
2023/01/24 12:41:18;;;;;;;25.05;18.67;;;;;;;;;;4964557;28;20278;-74
2023/01/24 12:43:44;;;;;;;27.92;19.30;;;;;;;;;;4965559;28;20053;-74
2023/01/24 12:46:13;;;;;;;23.55;17.75;;;;;;;;;;4974244;28;20034;-75
2023/01/24 12:48:42;;;;;;;26.52;18.27;;;;;;;;;;5005389;28;20657;-74
2023/01/24 12:51:15;;;;;;;27.70;19.17;;;;;;;;;;4985928;28;20048;-71
2023/01/24 12:53:52;;;;;;;27.50;18.65;;;;;;;;;;5002495;28;20173;-73
2023/01/24 12:56:20;;;;;;;26.10;18.67;;;;;;;;;;5004373;28;20033;-71
2023/01/24 12:58:49;;;;;;;25.75;18.60;;;;;;;;;;5004681;28;20053;-71
2023/01/24 13:01:23;;;;;;;26.73;19.05;;;;;;;;;;5004660;28;20430;-71
2023/01/24 13:04:04;;;;;;;28.33;19.27;;;;;;;;;;5004170;28;20026;-71
2023/01/24 13:06:40;;;;;;;31.25;20.70;;;;;;;;;;5002539;28;20095;-70
2023/01/24 13:09:14;;;;;;;29.63;20.83;;;;;;;;;;5004137;28;20045;-70
2023/01/24 13:11:46;;;;;;;32.15;21.17;;;;;;;;;;5004130;28;20046;-71
2023/01/24 13:14:27;;;;;;;31.65;21.73;;;;;;;;;;5003678;28;20113;-71
2023/01/24 13:17:04;;;;;;;28.73;20.55;;;;;;;;;;5004086;28;20101;-71
2023/01/24 13:19:48;;;;;;;28.13;19.55;;;;;;;;;;5003802;28;20506;-75
2023/01/24 13:22:43;;;;;;;25.88;18.75;;;;;;;;;;5004782;28;20030;-75
2023/01/24 13:25:27;;;;;;;28.17;20.48;;;;;;;;;;4998155;28;20537;-73
2023/01/24 13:28:04;;;;;;;30.02;21.13;;;;;;;;;;5003708;28;20395;-74
2023/01/24 13:30:34;;;;;;;30.20;20.45;;;;;;;;;;5001990;28;20037;-74
2023/01/24 13:33:02;;;;;;;28.25;19.52;;;;;;;;;;5003648;28;20029;-74
2023/01/24 13:35:28;;;;;;;30.77;20.52;;;;;;;;;;4986534;28;20099;-72
2023/01/24 13:37:55;;;;;;;28.40;21.08;;;;;;;;;;4984635;28;20026;-74
2023/01/24 13:40:20;;;;;;;30.70;20.80;;;;;;;;;;4984349;28;20447;-74
2023/01/24 13:42:46;;;;;;;31.15;21.75;;;;;;;;;;4984792;28;20113;-74
2023/01/24 13:45:26;;;;;;;29.92;21.70;;;;;;;;;;4982924;28;20035;-73
2023/01/24 13:47:58;;;;;;;30.88;21.50;;;;;;;;;;5002697;28;20030;-74
2023/01/24 13:50:32;;;;;;;28.73;20.73;;;;;;;;;;5003997;28;20064;-74
2023/01/24 13:53:03;;;;;;;29.50;20.23;;;;;;;;;;5003616;28;20030;-75
2023/01/24 13:55:29;;;;;;;35.33;23.35;;;;;;;;;;5001740;28;20045;-74
2023/01/24 13:58:13;;;;;;;33.17;22.15;;;;;;;;;;5001824;28;20045;-74
2023/01/24 14:00:41;;;;;;;32.47;22.35;;;;;;;;;;5003543;28;20085;-73
2023/01/24 14:03:26;;;;;;;34.60;23.73;;;;;;;;;;5003125;28;20054;-73
2023/01/24 14:05:54;;;;;;;36.92;24.55;;;;;;;;;;4985029;28;20030;-71
2023/01/24 14:08:19;;;;;;;31.17;22.50;;;;;;;;;;4983468;28;20023;-71
2023/01/24 14:10:46;;;;;;;31.13;21.00;;;;;;;;;;4983809;28;20030;-71
2023/01/24 14:13:30;;;;;;;32.67;22.50;;;;;;;;;;4983678;28;20026;-70
2023/01/24 14:15:56;;;;;;;32.53;22.60;;;;;;;;;;5001671;28;20456;-71
2023/01/24 14:18:39;;;;;;;31.27;22.50;;;;;;;;;;5002550;28;20117;-71
2023/01/24 14:21:12;;;;;;;37.88;24.50;;;;;;;;;;5002920;28;20533;-73
2023/01/24 14:23:40;;;;;;;33.10;23.60;;;;;;;;;;5002712;28;20498;-71
2023/01/24 14:26:06;;;;;;;39.42;25.70;;;;;;;;;;5003314;28;20030;-71
2023/01/24 14:28:39;;;;;;;35.55;24.40;;;;;;;;;;5002850;28;20552;-71
2023/01/24 14:31:23;;;;;;;34.22;23.13;;;;;;;;;;5000579;28;20049;-70
2023/01/24 14:33:54;;;;;;;34.95;24.02;;;;;;;;;;4996744;28;20026;-71
2023/01/24 14:36:24;;;;;;;35.13;23.75;;;;;;;;;;4981280;28;20062;-71
2023/01/24 14:39:09;;;;;;;37.33;24.60;;;;;;;;;;4981695;28;20037;-70
2023/01/24 14:41:34;;;;;;;34.05;23.35;;;;;;;;;;4981452;28;20392;-70
2023/01/24 14:44:02;;;;;;;39.47;26.20;;;;;;;;;;4981944;28;20049;-70
2023/01/24 14:46:30;;;;;;;35.85;23.83;;;;;;;;;;4988428;28;20100;-71
2023/01/24 14:48:55;;;;;;;34.60;23.27;;;;;;;;;;5000948;28;20022;-71
2023/01/24 14:51:24;;;;;;;34.92;23.40;;;;;;;;;;5003201;28;20030;-74
2023/01/24 14:53:51;;;;;;;35.42;24.08;;;;;;;;;;5006278;28;20025;-73
2023/01/24 14:56:16;;;;;;;34.40;23.80;;;;;;;;;;5004712;28;20037;-74
2023/01/24 14:58:42;;;;;;;37.25;24.73;;;;;;;;;;5006253;28;20026;-75
2023/01/24 15:01:22;;;;;;;37.90;24.20;;;;;;;;;;5006673;28;20030;-71